Stewart International Airport
KSWF : now visible

Airfield :











YOU CAN JOIN US ON...

 
LOGIN :

Register | Disclaimer

   EN    FR    IT 

 









Legend :    VFR   Marginal VFR   IFR   Intensive IFR   Very Intensive IFR
Visi :
Ceiling :
>= 8 km
>= 3000ft
5 to 8 km
1000 to 3000 ft
1500m to 5 km
500 to 1000 ft
800 to 1500m
200 to 500 ft
< 800m
< 200 ft
Symbols :   Thunderstorms  Fog  Heavy snow  Heavy precipitations  Wind > 20 kt






- Airport Elevation : 491 ft
- IATA code : SWF


KSWF - Stewart International

CURRENT METAR :
  • 051345Z 03010KT 7SM OVC013 04/04 A2973

EXPIRED METARs :
  • 051245Z 04010KT 7SM -RA OVC014 04/04 A2974
  • 051145Z 04006KT 3SM -RA BR OVC012 05/05 A2979

TAF KSWF
Valid from the 05 at 12:00 until the 06 at 18:00 UTC


051139Z 0512/0618 02010G15KT 3SM -RA BR OVC009
FM051500 36014G23KT 4SM -RASN BR OVC009
FM051800 35017G25KT 5SM -SN BR OVC015
FM052000 33018G28KT P6SM BKN012
FM052100 33020G30KT P6SM BKN050
FM060000 30019G27KT P6SM SKC
FM060900 30012G20KT P6SM SKC AMD NOT SKED
KZBW FIR / North America



MET'MAP, your aeronautical weather chart ! - Copyright ORBIFLY December 2007 - Disclaimer

ORBIFLY MET'MAP TEAM :

Programming & Development : Alexandra Zaïnal
Concept & original design : Baudouin d'Aumeries
Assistance for programming : Marc-Olivier Méhu
Technical & hardware support : Manuel Goepfert

Contact : metmap@orbifly.com




SOURCES & CREDITS :

   NOAA       Earth
Advisory